Time;durP1;ratioP1;P1;durP2;ratioP2;P2;SDS_P1;SDS_P2;PMS_P1;PMS_P2;Temp;Humidity;BMP_temperature;BMP_pressure;BME280_temperature;BME280_humidity;BME280_pressure;Samples;Min_cycle;Max_cycle;Signal;HPM_P1;HPM_P2
2021/12/22 00:00:25;;;;;;;2.65;2.11;;;;;;;-8.00;84.73;100626.80;449876;117;922552;-71
2021/12/22 00:01:28;;;;;;;3.16;2.08;;;;;;;-7.98;84.73;100624.03;438797;118;922960;-71
2021/12/22 00:02:33;;;;;;;3.11;2.27;;;;;;;-7.98;84.74;100630.17;438034;119;930384;-71
2021/12/22 00:03:38;;;;;;;2.61;2.39;;;;;;;-7.95;84.71;100632.64;448206;116;923071;-71
2021/12/22 00:04:47;;;;;;;4.37;2.43;;;;;;;-7.92;84.50;100634.23;450436;117;923554;-71
2021/12/22 00:05:51;;;;;;;2.07;1.88;;;;;;;-7.90;84.74;100632.35;444660;117;923001;-72
2021/12/22 00:06:55;;;;;;;2.25;1.87;;;;;;;-7.88;84.75;100633.94;464537;112;922937;-71
2021/12/22 00:07:58;;;;;;;2.33;2.12;;;;;;;-7.84;84.81;100637.27;463959;112;922820;-71
2021/12/22 00:09:04;;;;;;;2.66;2.16;;;;;;;-7.80;84.89;100644.05;465037;112;930418;-70
2021/12/22 00:10:09;;;;;;;2.04;1.74;;;;;;;-7.77;84.93;100643.87;464481;112;930623;-70
2021/12/22 00:11:12;;;;;;;2.06;1.89;;;;;;;-7.73;84.90;100645.38;465140;111;922634;-71
2021/12/22 00:12:16;;;;;;;2.21;2.01;;;;;;;-7.69;84.94;100646.87;454646;115;922948;-70
2021/12/22 00:13:19;;;;;;;2.90;2.11;;;;;;;-7.65;84.98;100643.07;456359;112;922791;-72
2021/12/22 00:14:23;;;;;;;2.29;1.98;;;;;;;-7.64;84.97;100645.62;464832;112;922526;-72
2021/12/22 00:15:26;;;;;;;2.82;2.24;;;;;;;-7.70;85.02;100642.52;465238;111;923150;-70
2021/12/22 00:16:30;;;;;;;2.81;2.20;;;;;;;-7.70;85.02;100642.52;466383;112;930380;-71
2021/12/22 00:17:33;;;;;;;2.53;2.05;;;;;;;-7.68;84.93;100648.58;465758;112;922504;-71
2021/12/22 00:18:37;;;;;;;2.79;2.42;;;;;;;-7.65;84.99;100638.62;463857;112;930370;-71
2021/12/22 00:19:41;;;;;;;2.38;2.05;;;;;;;-7.61;85.02;100649.89;463209;112;922709;-71
2021/12/22 00:20:44;;;;;;;2.71;2.04;;;;;;;-7.59;85.00;100643.53;463707;112;922596;-72
2021/12/22 00:21:47;;;;;;;5.01;2.84;;;;;;;-7.60;84.92;100652.41;464011;112;923015;-72
2021/12/22 00:22:51;;;;;;;3.24;2.23;;;;;;;-7.65;84.79;100656.30;464665;112;930565;-72
2021/12/22 00:23:55;;;;;;;3.58;2.52;;;;;;;-7.71;84.76;100660.19;464445;111;930411;-71
2021/12/22 00:24:58;;;;;;;3.13;2.47;;;;;;;-7.77;84.72;100665.87;464248;112;930515;-70
2021/12/22 00:26:02;;;;;;;2.79;2.47;;;;;;;-7.82;84.61;100665.31;448838;117;922638;-71
2021/12/22 00:27:05;;;;;;;4.87;2.60;;;;;;;-7.87;84.63;100670.05;465701;112;930302;-71
2021/12/22 00:28:09;;;;;;;2.34;2.05;;;;;;;-7.90;84.61;100679.98;465395;111;930484;-71
2021/12/22 00:29:16;;;;;;;3.46;2.44;;;;;;;-7.89;84.66;100673.75;463577;112;922786;-72
2021/12/22 00:30:20;;;;;;;4.38;2.25;;;;;;;-7.91;84.68;100673.84;465819;112;930740;-71
2021/12/22 00:31:24;;;;;;;3.54;2.90;;;;;;;-7.91;84.68;100678.27;465999;112;922432;-71
2021/12/22 00:32:30;;;;;;;3.19;2.80;;;;;;;-7.89;84.70;100679.04;465974;112;923131;-71
2021/12/22 00:33:33;;;;;;;2.81;2.49;;;;;;;-7.91;84.67;100675.62;465994;112;922842;-72
2021/12/22 00:35:51;;;;;;;3.88;2.64;;;;;;;-7.83;84.88;100686.59;471464;110;946966;-72
2021/12/22 00:36:54;;;;;;;3.76;2.88;;;;;;;-7.96;84.87;100683.86;464571;110;922655;-70
2021/12/22 00:37:58;;;;;;;5.14;3.89;;;;;;;-7.96;84.87;100675.06;464551;109;930589;-71
2021/12/22 00:39:01;;;;;;;4.33;3.67;;;;;;;-7.97;85.37;100679.50;464748;112;922771;-71
2021/12/22 00:40:06;;;;;;;4.76;3.69;;;;;;;-7.98;85.67;100685.73;464875;112;922713;-71
2021/12/22 00:41:09;;;;;;;5.45;4.06;;;;;;;-7.99;85.62;100683.20;464710;109;930725;-71
2021/12/22 00:42:14;;;;;;;4.73;3.66;;;;;;;-8.01;85.52;100678.86;465106;109;922526;-72
2021/12/22 00:43:18;;;;;;;4.98;3.68;;;;;;;-8.05;85.55;100687.91;464111;112;930631;-72
2021/12/22 00:44:23;;;;;;;5.84;3.24;;;;;;;-8.08;85.54;100687.25;464943;112;922757;-71
2021/12/22 00:45:28;;;;;;;5.95;4.01;;;;;;;-8.11;85.49;100690.95;464086;110;922640;-71
2021/12/22 00:46:31;;;;;;;4.12;3.71;;;;;;;-8.15;85.34;100686.77;464181;111;930567;-72
2021/12/22 00:47:36;;;;;;;4.84;3.23;;;;;;;-8.17;85.13;100683.39;464112;112;922979;-72
2021/12/22 00:48:40;;;;;;;5.18;3.48;;;;;;;-8.18;84.98;100689.62;464177;112;922597;-72
2021/12/22 00:49:43;;;;;;;5.57;3.99;;;;;;;-8.17;84.88;100688.68;463597;110;930666;-72
2021/12/22 00:50:46;;;;;;;4.53;3.51;;;;;;;-8.18;84.80;100692.27;463925;112;923045;-72
2021/12/22 00:51:50;;;;;;;4.74;3.54;;;;;;;-8.22;84.71;100687.27;464371;112;930621;-71
2021/12/22 00:52:53;;;;;;;5.27;3.64;;;;;;;-8.27;84.68;100692.80;463778;112;930523;-71
2021/12/22 00:53:57;;;;;;;3.79;3.25;;;;;;;-8.30;84.62;100692.18;463006;110;922593;-71
2021/12/22 00:55:00;;;;;;;6.71;6.11;;;;;;;-8.35;84.64;100695.11;463334;109;930978;-71
2021/12/22 00:56:04;;;;;;;6.34;5.66;;;;;;;-8.38;84.61;100691.81;463454;112;922529;-71
2021/12/22 00:57:10;;;;;;;6.37;5.25;;;;;;;-8.41;84.59;100694.62;463209;112;922779;-71
2021/12/22 00:58:15;;;;;;;5.03;4.56;;;;;;;-8.47;84.50;100699.33;457180;112;922690;-71
2021/12/22 00:59:18;;;;;;;5.66;5.08;;;;;;;-8.49;84.49;100689.81;458121;112;922819;-71
2021/12/22 01:00:25;;;;;;;5.55;4.24;;;;;;;-8.53;84.37;100694.41;464670;109;922664;-71
2021/12/22 01:01:29;;;;;;;6.44;4.33;;;;;;;-8.57;84.30;100700.83;465080;111;922650;-71
2021/12/22 01:02:32;;;;;;;4.67;3.76;;;;;;;-8.59;84.36;100700.05;465027;111;923602;-71
2021/12/22 01:03:35;;;;;;;4.18;3.44;;;;;;;-8.64;84.27;100688.05;463997;109;923054;-71
2021/12/22 01:04:40;;;;;;;7.09;3.42;;;;;;;-8.67;84.33;100693.53;463638;112;922636;-70
2021/12/22 01:05:43;;;;;;;3.07;2.54;;;;;;;-8.74;84.18;100702.75;464800;112;930555;-71
2021/12/22 01:06:47;;;;;;;3.78;2.92;;;;;;;-8.79;84.27;100696.89;464898;110;922542;-71
2021/12/22 01:07:51;;;;;;;7.99;2.91;;;;;;;-8.84;84.19;100705.09;464164;112;922728;-71
2021/12/22 01:08:54;;;;;;;3.10;2.61;;;;;;;-8.88;84.19;100714.99;464903;111;922584;-70
2021/12/22 01:09:57;;;;;;;3.54;2.72;;;;;;;-8.92;84.22;100705.52;464930;111;922691;-71
2021/12/22 01:11:01;;;;;;;4.27;3.14;;;;;;;-8.94;84.22;100717.98;463710;112;922581;-71
2021/12/22 01:12:06;;;;;;;2.97;2.61;;;;;;;-8.96;84.16;100719.00;464036;111;930568;-71
2021/12/22 01:13:10;;;;;;;3.28;2.97;;;;;;;-8.98;84.14;100719.08;464760;110;930797;-71
2021/12/22 01:14:13;;;;;;;3.65;3.15;;;;;;;-8.97;84.19;100720.78;463698;112;922690;-72
2021/12/22 01:15:16;;;;;;;3.46;3.09;;;;;;;-8.97;84.20;100718.14;464517;111;922736;-71
2021/12/22 01:16:20;;;;;;;3.48;3.18;;;;;;;-8.97;84.15;100723.42;463619;112;922555;-72
2021/12/22 01:17:24;;;;;;;3.13;2.87;;;;;;;-8.97;83.98;100722.58;463395;112;922558;-72
2021/12/22 01:18:34;;;;;;;2.52;2.27;;;;;;;-8.97;83.97;100727.86;463993;112;923209;-71
2021/12/22 01:19:44;;;;;;;3.29;2.81;;;;;;;-8.99;83.94;100725.33;463426;110;922703;-72
2021/12/22 01:20:59;;;;;;;3.00;2.59;;;;;;;-8.99;83.91;100740.32;461837;111;923133;-71
2021/12/22 01:22:04;;;;;;;2.38;2.16;;;;;;;-8.99;83.83;100735.04;462534;109;922779;-71
2021/12/22 01:23:05;;;;;;;3.64;3.19;;;;;;;-8.99;83.78;100735.04;464143;110;923128;-71
2021/12/22 01:24:21;;;;;;;4.62;4.17;;;;;;;-9.02;83.73;100737.84;464442;110;922545;-71
2021/12/22 01:25:22;;;;;;;6.86;4.12;;;;;;;-9.09;83.72;100734.69;463644;112;922979;-71
2021/12/22 01:26:27;;;;;;;2.41;2.21;;;;;;;-9.12;83.55;100744.58;463276;112;922616;-71
2021/12/22 01:27:35;;;;;;;2.48;2.14;;;;;;;-9.15;83.61;100742.13;464263;112;922646;-71
2021/12/22 01:28:42;;;;;;;2.23;1.96;;;;;;;-9.18;83.63;100744.92;463392;110;923008;-71
2021/12/22 01:29:43;;;;;;;2.09;1.89;;;;;;;-9.20;83.54;100749.42;464002;110;923186;-72
2021/12/22 01:30:48;;;;;;;3.62;1.78;;;;;;;-9.23;83.47;100741.69;464430;112;922740;-71
2021/12/22 01:31:55;;;;;;;2.22;1.93;;;;;;;-9.26;83.46;100750.62;463728;112;922760;-69
2021/12/22 01:32:59;;;;;;;4.67;2.02;;;;;;;-9.28;83.41;100752.52;463387;110;922898;-71
2021/12/22 01:34:02;;;;;;;1.99;1.81;;;;;;;-9.30;83.44;100757.02;464207;112;922953;-71
2021/12/22 01:35:10;;;;;;;1.66;1.56;;;;;;;-9.34;83.43;100760.77;463726;112;922602;-72
2021/12/22 01:36:14;;;;;;;2.01;1.70;;;;;;;-9.37;83.40;100760.95;467454;111;922615;-71
2021/12/22 01:37:17;;;;;;;1.74;1.52;;;;;;;-9.40;83.40;100763.74;467861;109;922913;-71
2021/12/22 01:38:20;;;;;;;2.87;1.78;;;;;;;-9.43;83.36;100767.42;468148;111;930376;-72
2021/12/22 01:39:24;;;;;;;2.16;1.99;;;;;;;-9.49;83.47;100764.26;468344;111;922569;-71
2021/12/22 01:40:28;;;;;;;2.01;1.66;;;;;;;-9.52;83.44;100772.32;468001;111;930900;-70
2021/12/22 01:41:32;;;;;;;1.86;1.49;;;;;;;-9.54;83.46;100768.94;460840;111;923027;-72
2021/12/22 01:42:36;;;;;;;1.85;1.71;;;;;;;-9.59;83.45;100765.70;459478;112;922617;-71
2021/12/22 01:43:40;;;;;;;1.70;1.42;;;;;;;-9.62;83.45;100779.89;468693;111;923125;-71
2021/12/22 01:46:31;;;;;;;1.77;1.64;;;;;;;-9.71;83.40;100777.76;468844;109;930416;-71
2021/12/22 01:50:10;;;;;;;1.99;1.48;;;;;;;-9.83;83.23;100781.89;468582;111;922718;-70
2021/12/22 01:51:16;;;;;;;1.93;1.61;;;;;;;-9.89;83.16;100787.49;468360;109;922570;-71
2021/12/22 01:52:21;;;;;;;1.97;1.76;;;;;;;-9.91;83.12;100788.49;468213;111;922652;-72
2021/12/22 01:53:31;;;;;;;2.13;1.78;;;;;;;-9.93;83.16;100787.73;468558;111;922788;-72
2021/12/22 01:54:49;;;;;;;2.42;1.81;;;;;;;-9.94;83.14;100786.88;467757;111;922422;-71
2021/12/22 01:56:05;;;;;;;2.19;1.68;;;;;;;-10.00;82.79;100776.66;464817;109;922783;-71
2021/12/22 01:57:09;;;;;;;2.47;2.00;;;;;;;-10.05;82.97;100772.55;467590;109;923374;-71
2021/12/22 01:58:12;;;;;;;2.69;2.10;;;;;;;-10.10;82.94;100777.21;468481;111;922625;-72
2021/12/22 01:59:15;;;;;;;3.16;1.76;;;;;;;-10.15;82.93;100775.67;462892;112;922622;-71
2021/12/22 02:00:21;;;;;;;3.14;1.82;;;;;;;-10.17;82.89;100772.28;463610;111;922929;-71
2021/12/22 02:01:26;;;;;;;2.65;1.87;;;;;;;-10.23;82.80;100769.11;462772;112;930493;-71
2021/12/22 02:02:30;;;;;;;2.21;2.02;;;;;;;-10.29;82.70;100769.42;463330;112;923090;-70
2021/12/22 02:03:34;;;;;;;2.37;1.87;;;;;;;-10.35;82.69;100775.00;463309;112;922755;-71
2021/12/22 02:04:38;;;;;;;2.45;1.69;;;;;;;-10.39;82.58;100773.46;462977;111;930569;-70
2021/12/22 02:05:42;;;;;;;2.36;2.13;;;;;;;-10.39;82.79;100779.59;464468;112;922700;-69
2021/12/22 02:06:47;;;;;;;2.87;2.33;;;;;;;-10.40;82.74;100785.78;463510;111;922713;-72
2021/12/22 02:07:56;;;;;;;2.17;1.69;;;;;;;-10.38;82.82;100783.08;464442;112;923116;-71
2021/12/22 02:08:59;;;;;;;2.29;1.85;;;;;;;-10.39;82.81;100782.22;463929;111;922586;-71
2021/12/22 02:10:19;;;;;;;2.33;1.94;;;;;;;-10.37;82.82;100785.64;463628;111;923137;-69
2021/12/22 02:11:09;;;;;;;2.14;1.91;;;;;;;-10.35;82.79;100786.40;462836;112;922747;-71
2021/12/22 02:12:13;;;;;;;2.57;2.17;;;;;;;-10.32;82.79;100791.53;463867;112;922846;-71
2021/12/22 02:13:23;;;;;;;2.16;1.77;;;;;;;-10.32;82.67;100798.58;463610;112;923252;-72
2021/12/22 02:14:22;;;;;;;2.28;1.71;;;;;;;-10.34;82.59;100790.75;463432;111;922658;-71
2021/12/22 02:15:29;;;;;;;2.64;2.18;;;;;;;-10.36;82.58;100799.68;463939;112;922747;-71
2021/12/22 02:16:35;;;;;;;1.97;1.66;;;;;;;-10.37;82.51;100790.06;464382;112;922998;-71
2021/12/22 02:17:39;;;;;;;2.54;2.29;;;;;;;-10.36;82.63;100803.14;463653;112;922933;-71
2021/12/22 02:18:45;;;;;;;2.45;1.78;;;;;;;-10.35;82.62;100804.84;463115;111;922928;-70
2021/12/22 02:19:49;;;;;;;2.61;2.09;;;;;;;-10.34;82.61;100809.20;463156;112;923121;-72
2021/12/22 02:20:53;;;;;;;2.74;2.02;;;;;;;-10.32;82.64;100817.03;464217;112;923097;-70
2021/12/22 02:21:58;;;;;;;2.91;2.13;;;;;;;-10.31;82.58;100816.94;462939;111;922671;-71
2021/12/22 02:23:01;;;;;;;2.26;1.83;;;;;;;-10.26;82.69;100822.00;462990;111;930365;-71
2021/12/22 02:24:05;;;;;;;2.96;2.40;;;;;;;-10.23;82.70;100817.41;463292;112;922524;-71
2021/12/22 02:25:18;;;;;;;2.59;1.96;;;;;;;-10.22;82.57;100820.91;463556;112;930505;-71
2021/12/22 02:26:23;;;;;;;2.23;1.79;;;;;;;-10.23;82.59;100821.83;464839;111;922538;-71
2021/12/22 02:27:33;;;;;;;2.28;2.08;;;;;;;-10.23;82.57;100819.19;464720;112;922704;-71
2021/12/22 02:28:33;;;;;;;2.92;2.24;;;;;;;-10.23;82.55;100824.47;463632;111;922862;-71
2021/12/22 02:29:37;;;;;;;2.82;2.34;;;;;;;-10.23;82.53;100816.56;463915;112;922939;-72
2021/12/22 02:30:40;;;;;;;2.46;2.25;;;;;;;-10.21;82.54;100819.98;464412;112;922651;-70
2021/12/22 02:31:48;;;;;;;5.97;2.17;;;;;;;-10.21;82.50;100831.38;464545;112;922660;-71
2021/12/22 02:33:54;;;;;;;2.47;2.04;;;;;;;-10.21;82.46;100826.11;464534;111;922561;-71
2021/12/22 02:35:03;;;;;;;2.74;2.38;;;;;;;-10.22;82.52;100826.18;464701;112;922561;-72
2021/12/22 02:37:15;;;;;;;2.72;2.39;;;;;;;-10.26;82.47;100825.49;462355;112;923054;-71
2021/12/22 02:38:18;;;;;;;2.24;2.06;;;;;;;-10.26;82.49;100822.00;463662;112;922526;-71
2021/12/22 02:39:22;;;;;;;2.61;2.08;;;;;;;-10.27;82.47;100830.83;463413;110;922716;-71
2021/12/22 02:40:27;;;;;;;2.61;2.17;;;;;;;-10.27;82.76;100826.42;463221;112;922567;-72
2021/12/22 02:41:31;;;;;;;2.38;2.18;;;;;;;-10.26;82.73;100835.18;463518;112;930477;-71
2021/12/22 02:42:35;;;;;;;2.27;2.07;;;;;;;-10.28;82.80;100839.66;463540;112;923207;-70
2021/12/22 02:43:54;;;;;;;2.82;1.87;;;;;;;-10.27;82.87;100841.38;463511;110;930308;-71
2021/12/22 02:44:52;;;;;;;2.38;1.88;;;;;;;-10.28;82.87;100842.30;462718;109;922638;-72
2021/12/22 02:45:55;;;;;;;2.81;2.39;;;;;;;-10.26;82.97;100840.45;463408;109;922687;-72
2021/12/22 02:46:59;;;;;;;3.47;2.55;;;;;;;-10.25;82.90;100840.34;463912;112;923095;-70
2021/12/22 02:48:02;;;;;;;2.56;2.12;;;;;;;-10.24;82.86;100842.06;463794;112;930333;-72
2021/12/22 02:49:08;;;;;;;2.86;2.00;;;;;;;-10.23;83.01;100842.92;463885;112;922708;-70
2021/12/22 02:50:14;;;;;;;3.06;2.12;;;;;;;-10.23;82.89;100848.19;463555;112;922883;-70
2021/12/22 02:51:19;;;;;;;4.38;2.74;;;;;;;-10.25;82.79;100848.26;465478;112;922509;-70
2021/12/22 02:52:29;;;;;;;4.15;2.55;;;;;;;-10.24;82.73;100849.11;465073;112;922736;-68
2021/12/22 02:53:41;;;;;;;2.56;2.07;;;;;;;-10.24;82.69;100854.39;463899;110;923157;-70
2021/12/22 02:54:41;;;;;;;2.90;2.23;;;;;;;-10.25;82.70;100855.31;462307;109;922611;-70
2021/12/22 02:56:57;;;;;;;2.47;1.99;;;;;;;-10.26;82.70;100849.22;464846;111;922641;-69
2021/12/22 02:58:01;;;;;;;3.70;2.53;;;;;;;-10.23;82.81;100856.10;463549;112;922636;-70
2021/12/22 02:59:14;;;;;;;3.37;2.42;;;;;;;-10.21;83.07;100848.98;464122;109;922686;-70
2021/12/22 03:00:32;;;;;;;4.31;2.63;;;;;;;-10.17;83.22;100853.16;463825;111;922664;-71
2021/12/22 03:02:58;;;;;;;2.89;2.41;;;;;;;-10.15;83.12;100848.64;458497;112;922613;-71
2021/12/22 03:04:06;;;;;;;3.32;2.82;;;;;;;-10.16;83.05;100846.96;463348;112;922796;-72
2021/12/22 03:05:07;;;;;;;3.84;3.22;;;;;;;-10.16;83.03;100852.23;462107;112;923127;-71
2021/12/22 03:06:14;;;;;;;4.14;2.92;;;;;;;-10.16;82.97;100850.42;461857;112;923007;-70
2021/12/22 03:07:18;;;;;;;8.57;3.56;;;;;;;-10.15;82.95;100851.28;461863;112;922702;-69
2021/12/22 03:08:21;;;;;;;4.26;3.54;;;;;;;-10.18;82.89;100846.17;461889;113;923020;-71
2021/12/22 03:09:30;;;;;;;3.52;2.78;;;;;;;-10.18;82.88;100852.30;463417;112;922543;-71
2021/12/22 03:10:34;;;;;;;3.26;2.95;;;;;;;-10.16;82.88;100852.23;448478;116;922620;-73
2021/12/22 03:11:37;;;;;;;3.56;3.24;;;;;;;-10.15;82.87;100857.41;462855;112;922632;-72
2021/12/22 03:12:41;;;;;;;3.62;2.98;;;;;;;-10.11;82.85;100855.45;463877;112;923446;-71
2021/12/22 03:13:44;;;;;;;3.59;2.64;;;;;;;-10.10;82.78;100861.59;464958;112;930653;-71
2021/12/22 03:14:48;;;;;;;4.81;2.92;;;;;;;-10.12;82.77;100861.66;463803;112;930602;-70
2021/12/22 03:15:51;;;;;;;3.31;2.99;;;;;;;-10.12;82.73;100857.23;463776;112;930723;-71
2021/12/22 03:16:55;;;;;;;3.84;2.66;;;;;;;-10.12;82.67;100857.23;463530;109;930486;-70
2021/12/22 03:17:59;;;;;;;3.84;2.81;;;;;;;-10.10;82.58;100864.22;464485;112;922611;-71
2021/12/22 03:19:02;;;;;;;3.55;2.70;;;;;;;-10.11;82.55;100860.73;464305;110;922543;-70
2021/12/22 03:20:09;;;;;;;3.25;2.68;;;;;;;-10.12;82.46;100865.15;463674;112;930733;-70
2021/12/22 03:21:20;;;;;;;3.41;2.99;;;;;;;-10.10;82.42;100861.59;463589;112;922574;-71
2021/12/22 03:22:21;;;;;;;4.28;3.17;;;;;;;-10.08;82.42;100865.83;463061;112;922506;-71
2021/12/22 03:23:24;;;;;;;3.94;2.86;;;;;;;-10.08;82.42;100868.47;463633;110;922733;-70
2021/12/22 03:24:29;;;;;;;3.51;3.10;;;;;;;-10.09;82.47;100864.16;463332;112;922588;-70
2021/12/22 03:25:32;;;;;;;4.41;3.71;;;;;;;-10.12;82.46;100865.15;463822;109;930563;-70
2021/12/22 03:26:41;;;;;;;9.02;5.94;;;;;;;-10.12;83.02;100859.88;464646;112;930772;-71
2021/12/22 03:27:45;;;;;;;6.49;4.47;;;;;;;-10.10;83.19;100862.44;464615;110;922690;-70
2021/12/22 03:28:49;;;;;;;5.51;4.10;;;;;;;-10.08;83.17;100867.61;464119;112;922580;-71
2021/12/22 03:29:53;;;;;;;4.79;3.86;;;;;;;-10.06;83.15;100878.95;465092;111;922663;-69
2021/12/22 03:30:58;;;;;;;4.66;3.48;;;;;;;-10.08;83.08;100864.98;465023;112;922504;-70
2021/12/22 03:32:02;;;;;;;4.82;3.87;;;;;;;-10.07;83.05;100864.91;464711;110;923115;-71
2021/12/22 03:33:06;;;;;;;3.88;3.46;;;;;;;-10.06;83.03;100869.26;464173;112;922687;-71
2021/12/22 03:34:10;;;;;;;3.29;2.79;;;;;;;-10.01;82.91;100875.15;464278;110;922676;-70
2021/12/22 03:35:19;;;;;;;4.94;3.46;;;;;;;-9.99;82.73;100877.72;464323;112;928856;-71
2021/12/22 03:36:23;;;;;;;4.20;3.42;;;;;;;-9.99;82.32;100881.21;463664;112;930641;-71
2021/12/22 03:37:26;;;;;;;5.56;3.64;;;;;;;-10.01;82.12;100872.52;463759;112;922635;-72
2021/12/22 03:38:32;;;;;;;3.96;3.26;;;;;;;-10.03;82.01;100881.45;463428;109;930680;-70
2021/12/22 03:39:35;;;;;;;5.11;3.29;;;;;;;-10.06;81.91;100887.72;463626;112;922695;-70
2021/12/22 03:40:39;;;;;;;4.55;3.08;;;;;;;-10.09;81.78;100879.12;463633;112;922898;-71
2021/12/22 03:41:45;;;;;;;3.28;2.56;;;;;;;-10.11;81.77;100881.82;464173;110;923950;-71
2021/12/22 03:42:49;;;;;;;3.94;2.74;;;;;;;-10.13;81.69;100879.25;463166;112;930554;-70
2021/12/22 03:43:52;;;;;;;3.82;2.79;;;;;;;-10.14;81.70;100879.32;462822;112;923081;-71
2021/12/22 03:44:56;;;;;;;3.16;2.59;;;;;;;-10.17;81.65;100880.38;463369;112;922599;-71
2021/12/22 03:46:01;;;;;;;3.00;2.65;;;;;;;-10.19;81.56;100881.37;463871;110;923046;-71
2021/12/22 03:47:05;;;;;;;3.90;2.83;;;;;;;-10.25;81.54;100887.80;464067;109;923407;-70
2021/12/22 03:48:09;;;;;;;4.31;2.88;;;;;;;-10.30;81.47;100889.81;464296;112;929074;-69
2021/12/22 03:49:14;;;;;;;4.55;3.62;;;;;;;-10.34;81.46;100885.63;463590;110;923173;-71
2021/12/22 03:50:18;;;;;;;4.31;2.94;;;;;;;-10.34;81.39;100892.68;464744;109;922575;-69
2021/12/22 03:51:22;;;;;;;3.90;2.33;;;;;;;-10.37;81.37;100893.70;463737;109;923883;-70
2021/12/22 03:52:25;;;;;;;2.86;2.34;;;;;;;-10.39;81.35;100897.33;464532;109;930665;-70
2021/12/22 03:53:31;;;;;;;2.98;2.17;;;;;;;-10.43;81.32;100899.27;462985;112;923099;-70
2021/12/22 03:54:34;;;;;;;7.73;2.42;;;;;;;-10.45;81.29;100900.25;464147;110;922528;-69
2021/12/22 03:55:38;;;;;;;3.36;2.21;;;;;;;-10.48;81.24;100901.27;464348;112;925586;-70
2021/12/22 03:56:42;;;;;;;3.05;2.23;;;;;;;-10.50;81.24;100904.89;463680;112;930656;-70
2021/12/22 03:57:45;;;;;;;2.45;1.92;;;;;;;-10.48;81.17;100905.69;464180;112;922616;-72
2021/12/22 03:58:49;;;;;;;3.10;1.96;;;;;;;-10.48;81.28;100903.91;463824;111;922721;-70
2021/12/22 03:59:53;;;;;;;2.46;1.99;;;;;;;-10.46;81.26;100904.67;463477;109;930591;-71
2021/12/22 04:00:57;;;;;;;3.38;2.26;;;;;;;-10.46;81.23;100909.94;464951;109;922548;-71
2021/12/22 04:02:01;;;;;;;2.86;2.23;;;;;;;-10.48;81.20;100913.59;463666;112;922775;-71
2021/12/22 04:03:05;;;;;;;3.49;2.53;;;;;;;-10.47;81.23;100908.22;463310;110;922844;-71
2021/12/22 04:04:14;;;;;;;2.69;2.46;;;;;;;-10.47;81.33;100921.40;463925;109;923111;-70
2021/12/22 04:05:17;;;;;;;2.79;2.39;;;;;;;-10.46;81.42;100917.84;463883;111;922606;-71
2021/12/22 04:06:21;;;;;;;3.47;2.74;;;;;;;-10.48;81.35;100917.09;463570;112;922988;-71
2021/12/22 04:07:24;;;;;;;3.56;2.68;;;;;;;-10.49;81.34;100910.10;464156;112;923204;-71
2021/12/22 04:08:28;;;;;;;3.66;2.67;;;;;;;-10.48;81.36;100913.59;464001;110;922828;-70
2021/12/22 04:09:31;;;;;;;3.39;2.44;;;;;;;-10.47;81.37;100917.94;464521;109;922642;-70
2021/12/22 04:10:34;;;;;;;4.95;2.97;;;;;;;-10.46;81.34;100912.58;464553;112;922758;-71
2021/12/22 04:11:37;;;;;;;4.09;3.22;;;;;;;-10.47;81.32;100913.50;465168;112;922972;-69
2021/12/22 04:12:41;;;;;;;5.05;3.91;;;;;;;-10.45;81.31;100926.61;464810;111;925108;-71
2021/12/22 04:13:44;;;;;;;4.88;3.86;;;;;;;-10.42;81.34;100926.48;464175;109;922692;-69
2021/12/22 04:14:47;;;;;;;4.44;3.94;;;;;;;-10.41;81.36;100920.25;463704;112;922736;-71
2021/12/22 04:15:51;;;;;;;3.66;3.01;;;;;;;-10.42;81.36;100924.70;464760;110;925032;-70
2021/12/22 04:16:54;;;;;;;3.61;2.70;;;;;;;-10.38;81.36;100917.48;464348;111;923226;-69
2021/12/22 04:17:58;;;;;;;4.16;3.77;;;;;;;-10.37;81.35;100914.78;464584;109;922604;-71
2021/12/22 04:19:03;;;;;;;4.52;3.12;;;;;;;-10.33;81.38;100926.02;463867;111;930516;-68
2021/12/22 04:20:07;;;;;;;4.68;3.67;;;;;;;-10.31;81.37;100914.45;463685;112;922595;-71
2021/12/22 04:21:11;;;;;;;5.02;4.55;;;;;;;-10.27;81.38;100917.82;463852;110;922599;-71
2021/12/22 04:22:15;;;;;;;5.87;4.79;;;;;;;-10.24;81.40;100925.56;464022;112;930597;-69
2021/12/22 04:23:18;;;;;;;4.57;4.23;;;;;;;-10.22;81.34;100923.72;463502;112;930628;-71
2021/12/22 04:24:22;;;;;;;4.61;4.19;;;;;;;-10.19;81.33;100924.41;463672;112;922999;-70
2021/12/22 04:25:26;;;;;;;4.56;4.16;;;;;;;-10.18;81.26;100926.13;463675;112;922640;-70
2021/12/22 04:26:32;;;;;;;4.84;3.10;;;;;;;-10.17;81.27;100925.20;463997;110;922607;-71
2021/12/22 04:27:36;;;;;;;3.87;3.02;;;;;;;-10.15;81.27;100930.38;464069;110;922473;-70
2021/12/22 04:28:40;;;;;;;3.13;2.79;;;;;;;-10.14;81.25;100932.05;465290;112;922718;-68
2021/12/22 04:29:43;;;;;;;4.69;2.87;;;;;;;-10.14;81.15;100937.33;464188;112;930894;-70
2021/12/22 04:30:49;;;;;;;3.20;2.75;;;;;;;-10.13;81.22;100937.26;465222;109;922691;-69
2021/12/22 04:31:53;;;;;;;4.01;2.78;;;;;;;-10.12;81.18;100943.39;463991;111;922646;-72
2021/12/22 04:32:56;;;;;;;4.88;3.07;;;;;;;-10.10;81.18;100945.96;464294;112;922723;-69
2021/12/22 04:34:01;;;;;;;3.62;3.21;;;;;;;-10.13;81.13;100933.77;464931;112;923054;-70
2021/12/22 04:35:05;;;;;;;3.92;3.29;;;;;;;-10.12;81.14;100940.75;463767;109;922564;-70
2021/12/22 04:36:09;;;;;;;4.19;3.38;;;;;;;-10.10;81.14;100938.05;464633;110;922535;-70
2021/12/22 04:37:12;;;;;;;4.22;3.82;;;;;;;-10.06;81.23;100937.81;457674;114;922620;-70
2021/12/22 04:38:17;;;;;;;3.27;2.98;;;;;;;-10.02;81.25;100938.51;454903;115;930610;-71
2021/12/22 04:39:20;;;;;;;4.04;3.63;;;;;;;-9.98;81.26;100934.81;452682;113;923730;-71
2021/12/22 04:40:26;;;;;;;3.91;3.37;;;;;;;-9.94;81.31;100934.58;456401;113;922856;-69
2021/12/22 04:41:30;;;;;;;5.26;4.47;;;;;;;-9.88;81.33;100936.91;453760;113;922603;-71
2021/12/22 04:42:33;;;;;;;7.51;5.72;;;;;;;-9.83;81.39;100936.67;455799;114;922575;-68
2021/12/22 04:43:36;;;;;;;7.74;5.03;;;;;;;-9.80;81.39;100937.36;463126;111;930663;-70
2021/12/22 04:44:40;;;;;;;5.95;4.96;;;;;;;-9.78;81.45;100938.15;463431;112;925667;-70
2021/12/22 04:45:43;;;;;;;8.94;6.31;;;;;;;-9.76;81.35;100944.18;463785;112;930601;-70
2021/12/22 04:46:47;;;;;;;7.65;5.57;;;;;;;-9.74;81.32;100942.33;463546;112;923285;-71
2021/12/22 04:47:51;;;;;;;7.24;5.83;;;;;;;-9.75;81.33;100948.53;463140;112;923812;-71
2021/12/22 04:48:54;;;;;;;7.59;5.93;;;;;;;-9.76;81.28;100946.00;463377;112;922832;-72
2021/12/22 04:49:57;;;;;;;6.16;4.88;;;;;;;-9.77;81.27;100937.22;463111;112;922587;-69
2021/12/22 04:51:01;;;;;;;5.77;4.56;;;;;;;-9.76;81.28;100946.00;463180;112;922506;-71
2021/12/22 04:52:07;;;;;;;6.08;4.72;;;;;;;-9.78;81.26;100938.15;463326;112;922689;-71
2021/12/22 04:53:20;;;;;;;7.13;5.11;;;;;;;-9.77;81.23;100941.64;463594;112;922591;-71
2021/12/22 04:54:32;;;;;;;7.79;5.26;;;;;;;-9.79;81.22;100939.08;463111;112;922869;-69
2021/12/22 04:55:22;;;;;;;8.89;5.46;;;;;;;-9.79;81.23;100943.50;462844;112;922755;-73
2021/12/22 04:56:26;;;;;;;9.84;5.74;;;;;;;-9.83;81.07;100937.53;464719;112;922842;-71
2021/12/22 04:57:31;;;;;;;8.93;5.97;;;;;;;-9.83;81.09;100941.95;464378;112;923012;-70
2021/12/22 04:58:34;;;;;;;5.52;4.47;;;;;;;-9.86;81.03;100947.36;463181;112;930569;-71
2021/12/22 04:59:39;;;;;;;4.96;3.51;;;;;;;-9.89;80.99;100940.47;464507;112;922555;-70
2021/12/22 05:00:43;;;;;;;4.94;3.60;;;;;;;-9.92;80.82;100947.70;463198;112;923184;-70
2021/12/22 05:01:46;;;;;;;3.64;3.01;;;;;;;-9.95;80.88;100943.41;453511;115;930756;-70
2021/12/22 05:02:50;;;;;;;4.66;3.12;;;;;;;-9.99;80.82;100951.56;454456;115;922735;-69
2021/12/22 05:03:56;;;;;;;3.36;2.94;;;;;;;-10.02;80.84;100954.33;452740;116;923126;-70
2021/12/22 05:05:01;;;;;;;3.88;2.89;;;;;;;-10.05;80.82;100946.59;455774;114;922697;-71